Pagrindinis puslapis
METAR-TAF:

METAR-TAF

Oro uostai :

Vesterosas, Švedija

platuma: 59-35N, ilguma: 016-38E, Aukštis: 6 m

Dabartinis oras

Ataskaita buvo paskelbta 37 minutes, ne 11:50 UTC
Vėjas 8 kt iš Pietų/Pietvakarių
Temperatūra 4°C
Drėgmė 87%
Slėgis 999 hPa
Matomumas 10 km arba daugiau
Išsisklaidę debesys ne aukštis 3000 ft

METAR: ESOW 161150Z 20008KT 9999 SCT030 04/02 Q0999 R19/290195

Laikas: 13:27 (12:27 UTC)

Prognozė

Ataskaita buvo paskelbta 57 minutes, ne 11:30 UTC
Prognozė galioja nuo 16 metu 12 UTC su 16 metu 16 UTC
Vėjas 7 kt iš Pietvakarių
Matomumas 10 km arba daugiau
Išsisklaidę debesys ne aukštis 1000 ft
Su prošvaistėmis ne aukštis 2000 ft
Tikimybė 40%
nuo 16 metu 12 UTC su 16 metu 16 UTC
Su prošvaistėmis ne aukštis 1000 ft

TAF: ESOW 161130Z 1612/1616 22007KT 9999 SCT010 BKN020 PROB40 1612/1616 BKN010

Orai ataskaitas ir orų prognozės (METAR, TAF).

turimą stotys yra geltonos ir raudonos taškus žemėlapyje.

Perkelti pele per norėdami pamatyti stoties vardą.

Tada spustelėkite, norėdami matyti oro stebėjimo ir prognozės.

Norėdami pakeisti žemėlapį: spustelėkite ant žalios mygtukų su juodo kryžiaus žemyn,; žalią mygtuką su brūkšneliu, jei norite nutolinti; arba žalių rodyklių gretimoms žemėlapius.


METAR-TAF: